Time;durP1;ratioP1;P1;durP2;ratioP2;P2;SDS_P1;SDS_P2;PMS_P1;PMS_P2;Temp;Humidity;BMP_temperature;BMP_pressure;BME280_temperature;BME280_humidity;BME280_pressure;Samples;Min_cycle;Max_cycle;Signal;HPM_P1;HPM_P2
2021/07/31 00:01:57;;;;;;;3.83;1.48;;;;;22.20;100243.00;;;;5042760;28;20192;-76
2021/07/31 00:04:26;;;;;;;5.57;2.75;;;;;22.20;100238.00;;;;5043242;28;20208;-76
2021/07/31 00:06:53;;;;;;;4.97;2.10;;;;;22.20;100237.00;;;;5047524;28;20203;-77
2021/07/31 00:09:20;;;;;;;5.28;2.08;;;;;22.20;100241.00;;;;5038946;28;20237;-76
2021/07/31 00:11:48;;;;;;;4.75;1.60;;;;;22.20;100244.00;;;;5047501;28;20200;-76
2021/07/31 00:14:15;;;;;;;6.03;1.92;;;;;22.20;100241.00;;;;5042324;28;20222;-75
2021/07/31 00:16:42;;;;;;;3.25;1.70;;;;;22.20;100248.00;;;;5044754;28;20209;-76
2021/07/31 00:19:09;;;;;;;3.53;1.75;;;;;22.20;100241.00;;;;5045848;28;20199;-76
2021/07/31 00:21:38;;;;;;;7.03;2.60;;;;;22.20;100252.00;;;;5046597;28;20199;-77
2021/07/31 00:24:06;;;;;;;3.42;1.92;;;;;22.20;100249.00;;;;5044589;28;20192;-75
2021/07/31 00:26:33;;;;;;;4.63;2.22;;;;;22.20;100255.00;;;;5042659;28;20227;-76
2021/07/31 00:29:01;;;;;;;6.03;2.15;;;;;22.20;100247.00;;;;5046887;28;20685;-75
2021/07/31 00:31:28;;;;;;;5.22;2.70;;;;;22.20;100252.00;;;;5046859;28;20219;-76
2021/07/31 00:33:55;;;;;;;4.13;1.83;;;;;22.20;100247.00;;;;5047322;28;20709;-76
2021/07/31 00:36:23;;;;;;;2.78;1.90;;;;;22.20;100245.00;;;;5046457;28;20196;-76
2021/07/31 00:38:52;;;;;;;4.50;2.33;;;;;22.20;100241.00;;;;5050069;28;20203;-76
2021/07/31 00:41:20;;;;;;;4.90;2.03;;;;;22.20;100238.00;;;;5048704;28;20682;-76
2021/07/31 00:43:48;;;;;;;4.90;2.03;;;;;22.30;100241.00;;;;5051318;28;20270;-76
2021/07/31 00:46:15;;;;;;;5.32;2.10;;;;;22.30;100256.00;;;;5050279;28;20232;-76
2021/07/31 00:48:43;;;;;;;6.13;2.50;;;;;22.20;100246.00;;;;5049829;28;20199;-77
2021/07/31 00:51:11;;;;;;;3.78;2.17;;;;;22.20;100255.00;;;;5040329;28;20210;-76
2021/07/31 00:53:38;;;;;;;6.30;2.08;;;;;22.20;100236.00;;;;5050713;28;20548;-76
2021/07/31 00:56:07;;;;;;;4.32;1.90;;;;;22.20;100243.00;;;;5050039;28;20203;-76
2021/07/31 00:58:35;;;;;;;2.72;1.67;;;;;22.20;100245.00;;;;5049742;28;20203;-77
2021/07/31 01:01:02;;;;;;;4.25;2.13;;;;;22.10;100239.00;;;;5049629;28;20196;-76
2021/07/31 01:03:29;;;;;;;4.53;2.30;;;;;22.10;100234.00;;;;5048014;28;20214;-76
2021/07/31 01:05:57;;;;;;;3.50;2.25;;;;;22.10;100226.00;;;;5038426;28;20224;-77
2021/07/31 01:08:24;;;;;;;4.20;2.20;;;;;22.10;100232.00;;;;5048575;28;20207;-75
2021/07/31 01:10:52;;;;;;;4.47;2.33;;;;;22.00;100231.00;;;;5048978;28;20207;-77
2021/07/31 01:13:21;;;;;;;6.80;2.95;;;;;22.00;100233.00;;;;5045865;28;20200;-76
2021/07/31 01:16:00;;;;;;;4.43;1.92;;;;;21.90;100237.00;;;;5048788;28;20195;-76
2021/07/31 01:18:27;;;;;;;6.28;2.30;;;;;22.00;100233.00;;;;5048102;28;20192;-76
2021/07/31 01:20:54;;;;;;;3.90;2.50;;;;;21.90;100223.00;;;;5043937;28;20215;-77
2021/07/31 01:23:23;;;;;;;2.85;2.05;;;;;21.90;100235.00;;;;5042738;28;20219;-77
2021/07/31 01:25:50;;;;;;;3.63;1.80;;;;;21.90;100232.00;;;;5048838;28;20709;-77
2021/07/31 01:28:18;;;;;;;4.57;2.22;;;;;21.80;100231.00;;;;5049661;28;20188;-76
2021/07/31 01:30:45;;;;;;;4.30;2.80;;;;;21.80;100234.00;;;;5050145;28;20196;-75
2021/07/31 01:33:12;;;;;;;3.42;2.10;;;;;21.80;100234.00;;;;5050180;28;20199;-76
2021/07/31 01:35:39;;;;;;;4.50;1.90;;;;;21.80;100238.00;;;;5048697;28;20203;-77
2021/07/31 01:38:07;;;;;;;4.82;2.10;;;;;21.80;100234.00;;;;5049562;28;20596;-77
2021/07/31 01:40:35;;;;;;;3.47;1.83;;;;;21.80;100239.00;;;;5049460;28;20196;-76
2021/07/31 01:43:03;;;;;;;3.17;1.90;;;;;21.80;100230.00;;;;5045012;28;20203;-77
2021/07/31 01:45:30;;;;;;;4.25;2.22;;;;;21.80;100226.00;;;;5036755;28;20212;-76
2021/07/31 01:47:57;;;;;;;4.55;1.80;;;;;21.80;100234.00;;;;5042435;28;20196;-76
2021/07/31 01:50:24;;;;;;;3.33;2.03;;;;;21.80;100232.00;;;;5042623;28;20195;-76
2021/07/31 01:52:51;;;;;;;1.90;1.48;;;;;21.80;100237.00;;;;5038980;28;20836;-76
2021/07/31 01:55:19;;;;;;;3.10;1.60;;;;;21.70;100232.00;;;;5046897;28;20200;-76
2021/07/31 01:57:47;;;;;;;5.43;1.73;;;;;21.70;100232.00;;;;5030641;28;20247;-76
2021/07/31 02:00:15;;;;;;;3.90;1.48;;;;;21.70;100233.00;;;;5038444;28;20666;-76
2021/07/31 02:02:42;;;;;;;3.95;2.10;;;;;21.70;100234.00;;;;5045803;28;20207;-76
2021/07/31 02:05:10;;;;;;;2.70;1.60;;;;;21.70;100235.00;;;;5049071;28;20199;-76
2021/07/31 02:07:37;;;;;;;3.63;2.25;;;;;21.70;100235.00;;;;5047215;28;20681;-76
2021/07/31 02:10:05;;;;;;;4.15;1.63;;;;;21.70;100224.00;;;;5039857;28;20192;-76
2021/07/31 02:12:32;;;;;;;4.15;2.10;;;;;21.70;100237.00;;;;5047995;28;20195;-76
2021/07/31 02:15:01;;;;;;;8.20;1.92;;;;;21.70;100225.00;;;;5041360;28;20220;-77
2021/07/31 02:17:29;;;;;;;3.28;1.50;;;;;21.80;100226.00;;;;5042462;28;20192;-76
2021/07/31 02:19:56;;;;;;;2.45;1.90;;;;;21.70;100223.00;;;;5047847;28;20203;-76
2021/07/31 02:22:23;;;;;;;3.50;1.88;;;;;21.80;100219.00;;;;5047654;28;20736;-75
2021/07/31 02:24:51;;;;;;;4.63;2.15;;;;;21.80;100212.00;;;;5048404;28;20215;-76
2021/07/31 02:27:18;;;;;;;4.70;2.17;;;;;21.80;100208.00;;;;5049498;28;20231;-76
2021/07/31 02:29:45;;;;;;;2.22;1.40;;;;;21.80;100207.00;;;;5049378;28;20218;-76
2021/07/31 02:32:14;;;;;;;3.30;2.15;;;;;21.70;100210.00;;;;5043891;28;20193;-75
2021/07/31 02:34:41;;;;;;;4.13;1.98;;;;;21.70;100212.00;;;;5046304;28;20258;-77
2021/07/31 02:37:08;;;;;;;4.22;2.25;;;;;21.80;100210.00;;;;5044554;28;20230;-76
2021/07/31 02:39:35;;;;;;;4.32;2.28;;;;;21.70;100214.00;;;;5034235;28;20195;-76
2021/07/31 02:42:03;;;;;;;2.78;1.92;;;;;21.70;100218.00;;;;5043845;28;20261;-76
2021/07/31 02:44:30;;;;;;;3.60;2.08;;;;;21.70;100224.00;;;;5034481;28;20200;-77
2021/07/31 02:46:57;;;;;;;6.22;2.10;;;;;21.70;100226.00;;;;5047035;28;20224;-77
2021/07/31 02:49:26;;;;;;;5.88;2.05;;;;;21.70;100225.00;;;;5049125;28;20207;-77
2021/07/31 02:51:53;;;;;;;5.93;2.00;;;;;21.70;100226.00;;;;5046321;28;20253;-76
2021/07/31 02:54:20;;;;;;;2.28;1.52;;;;;21.70;100220.00;;;;5046174;28;20200;-75
2021/07/31 02:56:48;;;;;;;3.95;1.63;;;;;21.60;100221.00;;;;5040309;28;20197;-76
2021/07/31 02:59:15;;;;;;;2.38;1.50;;;;;21.60;100220.00;;;;5041506;28;21020;-77
2021/07/31 03:01:42;;;;;;;4.03;1.63;;;;;21.60;100218.00;;;;5046888;28;21549;-77
2021/07/31 03:04:09;;;;;;;3.30;1.35;;;;;21.60;100219.00;;;;5049112;28;20191;-76
2021/07/31 03:06:38;;;;;;;5.63;2.47;;;;;21.60;100217.00;;;;5047635;28;20281;-78
2021/07/31 03:09:05;;;;;;;2.67;1.52;;;;;21.60;100225.00;;;;5044875;28;20200;-77
2021/07/31 03:11:32;;;;;;;1.77;1.52;;;;;21.50;100219.00;;;;5046240;28;20597;-77
2021/07/31 03:14:00;;;;;;;1.80;1.40;;;;;21.50;100221.00;;;;5042366;28;20192;-77
2021/07/31 03:16:27;;;;;;;1.67;1.27;;;;;21.50;100221.00;;;;5046590;28;20204;-77
2021/07/31 03:18:54;;;;;;;1.65;1.40;;;;;21.50;100209.00;;;;5048712;28;20192;-76
2021/07/31 03:21:21;;;;;;;2.05;1.20;;;;;21.50;100216.00;;;;5038441;28;20203;-77
2021/07/31 03:23:50;;;;;;;2.03;1.20;;;;;21.50;100226.00;;;;5045794;28;20199;-76
2021/07/31 03:26:17;;;;;;;3.88;2.38;;;;;21.50;100216.00;;;;5045809;28;20908;-75
2021/07/31 03:28:44;;;;;;;3.30;1.27;;;;;21.50;100227.00;;;;5049484;28;20214;-76
2021/07/31 03:31:19;;;;;;;1.92;1.60;;;;;21.40;100217.00;;;;5042825;28;20574;-75
2021/07/31 03:33:46;;;;;;;1.85;1.60;;;;;21.40;100226.00;;;;5040550;28;20249;-76
2021/07/31 03:36:13;;;;;;;3.40;1.75;;;;;21.40;100229.00;;;;5048373;28;20200;-76
2021/07/31 03:38:41;;;;;;;3.58;2.13;;;;;21.40;100231.00;;;;5045947;28;20260;-76
2021/07/31 03:41:09;;;;;;;2.28;1.73;;;;;21.40;100241.00;;;;5047627;28;20195;-75
2021/07/31 03:43:37;;;;;;;3.42;1.77;;;;;21.40;100236.00;;;;5031900;28;20203;-76
2021/07/31 03:46:06;;;;;;;2.55;1.95;;;;;21.40;100235.00;;;;5041385;28;20224;-76
2021/07/31 03:48:34;;;;;;;2.60;1.45;;;;;21.40;100249.00;;;;5048404;28;20277;-75
2021/07/31 03:51:01;;;;;;;2.88;1.80;;;;;21.40;100240.00;;;;5047068;28;21037;-76
2021/07/31 03:53:28;;;;;;;3.13;1.80;;;;;21.40;100242.00;;;;5044631;28;20238;-76
2021/07/31 03:55:55;;;;;;;2.60;1.63;;;;;21.40;100242.00;;;;5047586;28;20573;-76
2021/07/31 03:58:24;;;;;;;3.58;2.05;;;;;21.40;100253.00;;;;5047920;28;20196;-76
2021/07/31 04:00:51;;;;;;;2.70;1.55;;;;;21.40;100254.00;;;;5033049;28;20192;-76
2021/07/31 04:03:18;;;;;;;3.47;2.35;;;;;21.40;100251.00;;;;5045129;28;20222;-76
2021/07/31 04:05:45;;;;;;;2.78;1.80;;;;;21.40;100263.00;;;;5041782;28;20201;-76
2021/07/31 04:08:13;;;;;;;2.78;1.67;;;;;21.40;100256.00;;;;5042984;28;20203;-76
2021/07/31 04:10:41;;;;;;;4.93;2.10;;;;;21.40;100259.00;;;;5052007;28;20199;-75
2021/07/31 04:13:09;;;;;;;2.75;1.95;;;;;21.40;100263.00;;;;5045420;28;20199;-76
2021/07/31 04:15:42;;;;;;;3.38;1.67;;;;;21.40;100272.00;;;;5041818;28;20235;-76
2021/07/31 04:18:09;;;;;;;4.72;1.90;;;;;21.40;100276.00;;;;5052254;28;20290;-76
2021/07/31 04:20:37;;;;;;;3.53;1.85;;;;;21.40;100275.00;;;;5040428;28;20203;-76
2021/07/31 04:23:04;;;;;;;3.53;2.15;;;;;21.40;100284.00;;;;5040014;28;20197;-76
2021/07/31 04:25:31;;;;;;;4.78;2.05;;;;;21.40;100290.00;;;;5043672;28;20222;-76
2021/07/31 04:27:59;;;;;;;3.35;1.83;;;;;21.40;100286.00;;;;5039850;28;20215;-75
2021/07/31 04:30:27;;;;;;;2.47;1.85;;;;;21.40;100292.00;;;;5050300;28;20200;-76
2021/07/31 04:32:56;;;;;;;4.10;1.98;;;;;21.40;100287.00;;;;5051632;28;20214;-76
2021/07/31 04:35:24;;;;;;;3.83;1.90;;;;;21.40;100293.00;;;;5051628;28;20284;-77
2021/07/31 04:37:51;;;;;;;4.72;2.00;;;;;21.40;100293.00;;;;5049499;28;20191;-76
2021/07/31 04:40:18;;;;;;;4.95;2.30;;;;;21.40;100291.00;;;;5046775;28;20261;-76
2021/07/31 04:42:45;;;;;;;2.13;1.77;;;;;21.40;100298.00;;;;5044664;28;20215;-76
2021/07/31 04:45:13;;;;;;;2.60;1.73;;;;;21.50;100289.00;;;;5043080;28;20204;-75
2021/07/31 04:47:43;;;;;;;2.33;1.70;;;;;21.50;100297.00;;;;5051361;28;20231;-76
2021/07/31 04:50:14;;;;;;;4.32;2.20;;;;;21.50;100297.00;;;;5038936;28;20231;-75
2021/07/31 04:52:42;;;;;;;2.72;2.00;;;;;21.50;100300.00;;;;5044423;28;20196;-76
2021/07/31 04:55:09;;;;;;;3.83;2.10;;;;;21.50;100295.00;;;;5042681;28;20215;-76
2021/07/31 04:57:36;;;;;;;2.83;1.92;;;;;21.50;100298.00;;;;5031442;28;20668;-76
2021/07/31 05:00:04;;;;;;;3.65;2.20;;;;;21.50;100301.00;;;;5046644;28;20196;-76
2021/07/31 05:02:33;;;;;;;2.15;1.85;;;;;21.50;100309.00;;;;5046517;28;20200;-76
2021/07/31 05:05:01;;;;;;;5.20;2.50;;;;;21.50;100309.00;;;;5031835;28;20196;-77
2021/07/31 05:07:30;;;;;;;4.32;2.08;;;;;21.50;100304.00;;;;5041094;28;20781;-77
2021/07/31 05:09:57;;;;;;;6.20;2.25;;;;;21.50;100303.00;;;;5045709;28;20196;-76
2021/07/31 05:12:24;;;;;;;3.70;2.40;;;;;21.60;100311.00;;;;5031358;28;20193;-76
2021/07/31 05:14:52;;;;;;;2.95;1.90;;;;;21.60;100307.00;;;;5035578;28;20613;-76
2021/07/31 05:17:20;;;;;;;5.70;2.03;;;;;21.60;100310.00;;;;5034934;28;20838;-76
2021/07/31 05:19:47;;;;;;;2.42;1.88;;;;;21.60;100310.00;;;;5036596;28;20277;-76
2021/07/31 05:22:15;;;;;;;2.97;1.95;;;;;21.60;100312.00;;;;5043884;28;20207;-76
2021/07/31 05:24:44;;;;;;;4.93;2.35;;;;;21.60;100321.00;;;;5042642;28;20239;-75
2021/07/31 05:27:11;;;;;;;4.50;2.22;;;;;21.60;100317.00;;;;5034531;28;20220;-75
2021/07/31 05:29:38;;;;;;;6.00;4.00;;;;;21.60;100318.00;;;;5042318;28;20451;-77
2021/07/31 05:32:06;;;;;;;5.43;2.75;;;;;21.70;100316.00;;;;5049376;28;20206;-76
2021/07/31 05:34:33;;;;;;;2.10;1.90;;;;;21.70;100319.00;;;;5048968;28;20231;-76
2021/07/31 05:37:01;;;;;;;2.35;1.98;;;;;21.70;100323.00;;;;5042281;28;20205;-76
2021/07/31 05:39:33;;;;;;;3.83;2.20;;;;;21.70;100331.00;;;;5048575;28;20673;-76
2021/07/31 05:42:04;;;;;;;2.22;1.77;;;;;21.60;100330.00;;;;5043765;28;20990;-77
2021/07/31 05:44:32;;;;;;;3.22;1.73;;;;;21.70;100326.00;;;;5050410;28;20249;-76
2021/07/31 05:46:59;;;;;;;4.07;1.73;;;;;21.70;100326.00;;;;5050875;28;20255;-76
2021/07/31 05:49:30;;;;;;;2.58;1.80;;;;;21.60;100335.00;;;;5049647;28;20199;-76
2021/07/31 05:51:57;;;;;;;4.07;1.58;;;;;21.70;100336.00;;;;5049735;28;20670;-76
2021/07/31 05:54:25;;;;;;;2.63;2.20;;;;;21.70;100335.00;;;;5049286;28;20207;-77
2021/07/31 05:56:52;;;;;;;3.42;1.73;;;;;21.70;100337.00;;;;5050623;28;20204;-77
2021/07/31 05:59:22;;;;;;;4.43;1.95;;;;;21.60;100346.00;;;;5051026;28;20596;-75
2021/07/31 06:01:49;;;;;;;3.42;1.63;;;;;21.70;100345.00;;;;5047901;28;20203;-76
2021/07/31 06:04:16;;;;;;;3.33;1.90;;;;;21.70;100347.00;;;;5036034;28;21267;-76
2021/07/31 06:06:43;;;;;;;3.85;1.42;;;;;21.70;100346.00;;;;5043310;28;20227;-76
2021/07/31 06:09:10;;;;;;;4.40;1.38;;;;;21.70;100347.00;;;;5048524;28;20222;-76
2021/07/31 06:11:38;;;;;;;3.85;1.70;;;;;21.70;100344.00;;;;5042245;28;20196;-75
2021/07/31 06:14:05;;;;;;;2.05;1.67;;;;;21.70;100359.00;;;;5038184;28;20279;-75
2021/07/31 06:16:34;;;;;;;2.90;1.73;;;;;21.70;100354.00;;;;5035697;28;20195;-76
2021/07/31 06:19:01;;;;;;;4.63;1.52;;;;;21.80;100359.00;;;;5038937;28;20230;-75
2021/07/31 06:21:28;;;;;;;2.40;1.60;;;;;21.80;100358.00;;;;5039448;28;20276;-77
2021/07/31 06:23:55;;;;;;;3.35;1.73;;;;;21.80;100360.00;;;;5046461;28;20936;-77
2021/07/31 06:26:23;;;;;;;1.95;1.52;;;;;21.80;100363.00;;;;5044182;28;20223;-76
2021/07/31 06:28:50;;;;;;;3.40;1.23;;;;;21.80;100359.00;;;;5043673;28;20199;-77
2021/07/31 06:31:17;;;;;;;2.92;1.15;;;;;21.80;100366.00;;;;5033236;28;20199;-76
2021/07/31 06:33:46;;;;;;;2.00;1.40;;;;;21.80;100372.00;;;;5031687;28;20697;-76
2021/07/31 06:36:13;;;;;;;3.47;1.58;;;;;21.80;100375.00;;;;5042377;28;20208;-75
2021/07/31 06:38:40;;;;;;;2.72;1.63;;;;;21.90;100365.00;;;;5031904;28;20218;-76
2021/07/31 06:41:07;;;;;;;4.07;0.95;;;;;21.90;100364.00;;;;5036646;28;20199;-77
2021/07/31 06:43:34;;;;;;;4.88;1.40;;;;;21.90;100373.00;;;;5047665;28;20723;-76
2021/07/31 06:46:10;;;;;;;1.73;1.10;;;;;21.90;100368.00;;;;5042342;28;20447;-77
2021/07/31 06:48:37;;;;;;;5.18;1.48;;;;;22.00;100378.00;;;;5034554;28;20309;-76
2021/07/31 06:51:07;;;;;;;2.78;1.25;;;;;22.00;100384.00;;;;5040616;28;20196;-76
2021/07/31 06:53:34;;;;;;;1.73;1.25;;;;;22.00;100390.00;;;;5032354;28;20200;-77
2021/07/31 06:56:02;;;;;;;1.45;1.27;;;;;22.00;100395.00;;;;5030306;28;20204;-77
2021/07/31 06:58:30;;;;;;;1.83;1.38;;;;;22.00;100393.00;;;;5034003;28;20675;-76
2021/07/31 07:00:57;;;;;;;5.00;1.70;;;;;22.10;100396.00;;;;5039608;28;20205;-77
2021/07/31 07:03:24;;;;;;;2.53;1.45;;;;;22.10;100402.00;;;;5042897;28;20200;-77
2021/07/31 07:05:51;;;;;;;1.52;0.95;;;;;22.10;100399.00;;;;5039702;28;20218;-78
2021/07/31 07:08:20;;;;;;;2.38;1.13;;;;;22.10;100405.00;;;;5037092;28;20224;-76
2021/07/31 07:10:47;;;;;;;1.23;1.08;;;;;22.10;100411.00;;;;5046942;28;20223;-76
2021/07/31 07:13:14;;;;;;;2.15;1.55;;;;;22.20;100404.00;;;;5048693;28;20195;-77
2021/07/31 07:15:41;;;;;;;3.72;1.42;;;;;22.20;100407.00;;;;5048479;28;20272;-77
2021/07/31 07:18:09;;;;;;;4.88;1.10;;;;;22.20;100404.00;;;;5048305;28;20569;-76
2021/07/31 07:20:36;;;;;;;2.88;1.42;;;;;22.20;100412.00;;;;5046689;28;20195;-76
2021/07/31 07:23:03;;;;;;;2.70;1.48;;;;;22.20;100411.00;;;;5047992;28;20202;-75
2021/07/31 07:25:32;;;;;;;2.67;1.25;;;;;22.20;100416.00;;;;5048237;28;20231;-76
2021/07/31 07:28:00;;;;;;;1.83;1.42;;;;;22.20;100414.00;;;;5048590;28;20223;-76
2021/07/31 07:30:27;;;;;;;3.55;1.48;;;;;22.30;100409.00;;;;5048337;28;20712;-76
2021/07/31 07:32:55;;;;;;;4.35;1.27;;;;;22.30;100417.00;;;;5047172;28;20210;-76
2021/07/31 07:35:22;;;;;;;1.67;1.10;;;;;22.30;100416.00;;;;5036316;28;20625;-77
2021/07/31 07:37:49;;;;;;;5.15;1.95;;;;;22.30;100417.00;;;;5028417;28;20246;-75
2021/07/31 07:40:17;;;;;;;2.55;1.05;;;;;22.30;100416.00;;;;5045577;28;20730;-75
2021/07/31 07:42:45;;;;;;;4.65;1.08;;;;;22.30;100415.00;;;;5046845;28;20199;-76
2021/07/31 07:45:13;;;;;;;0.98;0.75;;;;;22.30;100419.00;;;;5048310;28;20196;-77
2021/07/31 07:47:40;;;;;;;1.85;1.20;;;;;22.30;100420.00;;;;5038724;28;20220;-79
2021/07/31 07:50:08;;;;;;;1.80;1.08;;;;;22.40;100422.00;;;;5040724;28;20585;-78
2021/07/31 07:52:35;;;;;;;4.53;0.80;;;;;22.40;100417.00;;;;5047948;28;20674;-78
2021/07/31 07:55:03;;;;;;;1.25;1.13;;;;;22.40;100422.00;;;;5046696;28;20673;-79
2021/07/31 07:57:30;;;;;;;1.23;0.90;;;;;22.40;100416.00;;;;5038336;28;20198;-77
2021/07/31 07:59:58;;;;;;;1.55;0.88;;;;;22.40;100420.00;;;;5046727;28;20662;-78
2021/07/31 08:02:26;;;;;;;3.20;1.00;;;;;22.40;100437.00;;;;5032267;28;20188;-76
2021/07/31 08:04:53;;;;;;;3.13;1.08;;;;;22.40;100442.00;;;;5046700;28;20200;-77
2021/07/31 08:07:20;;;;;;;2.08;1.35;;;;;22.40;100449.00;;;;5029742;28;20220;-77
2021/07/31 08:09:47;;;;;;;1.27;0.90;;;;;22.40;100441.00;;;;5041551;28;20322;-77
2021/07/31 08:12:14;;;;;;;4.07;1.48;;;;;22.40;100457.00;;;;5028811;28;20199;-78
2021/07/31 08:14:42;;;;;;;2.03;1.17;;;;;22.30;100461.00;;;;5045285;28;20192;-77
2021/07/31 08:17:10;;;;;;;0.70;0.68;;;;;22.30;100456.00;;;;5042518;28;20206;-76
2021/07/31 08:19:37;;;;;;;1.13;1.00;;;;;22.30;100460.00;;;;5034078;28;20203;-77
2021/07/31 08:22:05;;;;;;;1.40;0.90;;;;;22.30;100458.00;;;;5035179;28;20200;-77
2021/07/31 08:24:32;;;;;;;2.75;1.40;;;;;22.30;100451.00;;;;5036893;28;20750;-78
2021/07/31 08:26:59;;;;;;;1.50;0.98;;;;;22.40;100459.00;;;;5046640;28;20191;-77
2021/07/31 08:29:27;;;;;;;1.95;1.15;;;;;22.40;100459.00;;;;5047595;28;20204;-76
2021/07/31 08:31:54;;;;;;;1.60;1.00;;;;;22.40;100473.00;;;;5047335;28;20203;-77
2021/07/31 08:34:22;;;;;;;2.00;0.98;;;;;22.40;100474.00;;;;5046677;28;20744;-75
2021/07/31 08:36:50;;;;;;;2.78;1.25;;;;;22.50;100473.00;;;;5047272;28;20202;-76
2021/07/31 08:39:17;;;;;;;1.23;0.95;;;;;22.50;100490.00;;;;5048410;28;20207;-76
2021/07/31 08:41:47;;;;;;;2.63;1.25;;;;;22.50;100478.00;;;;5047447;28;20199;-77
2021/07/31 08:44:14;;;;;;;1.20;1.08;;;;;22.50;100477.00;;;;5047426;28;20294;-76
2021/07/31 08:46:44;;;;;;;0.90;0.80;;;;;22.40;100476.00;;;;5042813;28;20200;-78
2021/07/31 08:49:14;;;;;;;1.33;1.02;;;;;22.40;100483.00;;;;5043003;28;20228;-76
2021/07/31 08:51:46;;;;;;;0.80;0.70;;;;;22.40;100482.00;;;;5031916;28;20203;-75
2021/07/31 08:54:14;;;;;;;2.80;0.63;;;;;22.40;100478.00;;;;5043584;28;20200;-75
2021/07/31 08:56:43;;;;;;;1.15;0.57;;;;;22.40;100485.00;;;;5043031;28;20207;-76
2021/07/31 08:59:11;;;;;;;1.90;0.63;;;;;22.40;100485.00;;;;5042874;28;20289;-76
2021/07/31 09:01:38;;;;;;;1.25;0.70;;;;;22.40;100493.00;;;;5046121;28;20199;-76
2021/07/31 09:04:13;;;;;;;1.40;0.90;;;;;22.30;100499.00;;;;5051498;28;20830;-76
2021/07/31 09:06:42;;;;;;;2.15;0.88;;;;;22.40;100499.00;;;;5050691;28;20195;-76
2021/07/31 09:09:10;;;;;;;1.02;0.93;;;;;22.40;100497.00;;;;5049203;28;20270;-76
2021/07/31 09:11:59;;;;;;;2.20;1.30;;;;;22.30;100511.00;;;;5050950;28;20204;-75
2021/07/31 09:14:26;;;;;;;1.30;1.00;;;;;22.50;100502.00;;;;5049089;28;20196;-76
2021/07/31 09:16:54;;;;;;;1.52;1.20;;;;;22.50;100499.00;;;;5048765;28;20203;-76
2021/07/31 09:19:22;;;;;;;3.35;1.00;;;;;22.60;100506.00;;;;5043906;28;20200;-76
2021/07/31 09:21:51;;;;;;;2.13;1.40;;;;;22.60;100500.00;;;;5040454;28;20586;-76
2021/07/31 09:24:20;;;;;;;1.77;1.05;;;;;22.70;100515.00;;;;5036651;28;20585;-76
2021/07/31 09:26:50;;;;;;;4.63;1.52;;;;;22.80;100510.00;;;;5046253;28;20196;-77
2021/07/31 09:29:19;;;;;;;2.30;1.73;;;;;22.80;100504.00;;;;5049049;28;20254;-76
2021/07/31 09:31:54;;;;;;;1.88;1.25;;;;;22.80;100504.00;;;;5044692;28;20199;-77
2021/07/31 09:34:35;;;;;;;1.52;1.40;;;;;22.90;100516.00;;;;5043402;28;20222;-77
2021/07/31 09:37:12;;;;;;;2.10;1.40;;;;;22.90;100519.00;;;;5044662;28;20210;-77
2021/07/31 09:39:51;;;;;;;1.63;1.35;;;;;22.90;100522.00;;;;5039892;28;20211;-77
2021/07/31 09:42:27;;;;;;;1.95;1.52;;;;;22.90;100526.00;;;;5037709;28;20814;-76
2021/07/31 09:44:54;;;;;;;1.65;1.40;;;;;22.90;100528.00;;;;5038619;28;20206;-75
2021/07/31 09:47:21;;;;;;;2.13;1.63;;;;;22.90;100532.00;;;;5038941;28;20211;-76
2021/07/31 09:49:50;;;;;;;1.60;1.20;;;;;22.90;100528.00;;;;5036265;28;20204;-75
2021/07/31 09:52:20;;;;;;;3.47;1.30;;;;;22.80;100531.00;;;;5035023;28;20206;-75
2021/07/31 09:54:47;;;;;;;1.73;1.35;;;;;22.80;100540.00;;;;5041147;28;20205;-76
2021/07/31 09:57:15;;;;;;;3.67;1.50;;;;;22.90;100535.00;;;;5041356;28;20203;-75
2021/07/31 09:59:46;;;;;;;1.88;1.20;;;;;22.90;100541.00;;;;5042302;28;20196;-76
2021/07/31 10:02:18;;;;;;;1.92;1.40;;;;;22.90;100541.00;;;;5049408;28;20284;-77
2021/07/31 10:04:46;;;;;;;2.35;1.40;;;;;23.00;100543.00;;;;5049358;28;20187;-76
2021/07/31 10:07:14;;;;;;;1.52;1.15;;;;;23.00;100549.00;;;;5046887;28;20203;-76
2021/07/31 10:09:49;;;;;;;5.57;1.38;;;;;23.10;100557.00;;;;5033511;28;20247;-76
2021/07/31 10:12:17;;;;;;;1.73;1.50;;;;;23.20;100553.00;;;;5049209;28;20191;-76
2021/07/31 10:14:45;;;;;;;2.22;1.52;;;;;23.20;100558.00;;;;5047244;28;20202;-77
2021/07/31 10:17:14;;;;;;;2.30;1.60;;;;;23.30;100562.00;;;;5049977;28;20288;-77
2021/07/31 10:19:42;;;;;;;2.60;1.63;;;;;23.30;100567.00;;;;5050074;28;20196;-77
2021/07/31 10:22:11;;;;;;;2.00;1.80;;;;;23.30;100557.00;;;;5036235;28;20254;-77
2021/07/31 10:25:09;;;;;;;2.80;1.30;;;;;23.20;100573.00;;;;5047991;28;20220;-79
2021/07/31 10:27:37;;;;;;;2.55;1.50;;;;;23.40;100576.00;;;;5039716;28;20196;-77
2021/07/31 10:30:23;;;;;;;4.53;1.17;;;;;23.30;100589.00;;;;5038787;28;20204;-76
2021/07/31 10:32:50;;;;;;;1.77;1.00;;;;;23.30;100583.00;;;;5030261;28;20693;-77
2021/07/31 10:35:36;;;;;;;3.78;1.45;;;;;23.20;100588.00;;;;5030393;28;20232;-77
2021/07/31 10:38:05;;;;;;;1.10;0.80;;;;;23.30;100594.00;;;;5029717;28;20201;-77
2021/07/31 10:40:56;;;;;;;1.63;1.08;;;;;23.10;100589.00;;;;5029294;28;20228;-77
2021/07/31 10:43:24;;;;;;;0.93;0.70;;;;;23.30;100596.00;;;;5029264;28;20246;-77
2021/07/31 10:46:24;;;;;;;1.38;0.80;;;;;23.10;100606.00;;;;5030377;28;20200;-77
2021/07/31 10:48:51;;;;;;;3.13;1.33;;;;;23.30;100595.00;;;;5029578;28;20260;-78
2021/07/31 10:51:41;;;;;;;2.50;0.95;;;;;23.10;100604.00;;;;5048364;28;20207;-78
2021/07/31 10:54:09;;;;;;;1.73;1.00;;;;;23.30;100613.00;;;;5048992;28;20234;-78
2021/07/31 10:56:58;;;;;;;0.93;0.82;;;;;23.20;100611.00;;;;5036853;28;20232;-76
2021/07/31 10:59:25;;;;;;;1.00;0.80;;;;;23.40;100607.00;;;;5037668;28;20199;-77
2021/07/31 11:02:38;;;;;;;1.25;0.70;;;;;23.30;100615.00;;;;5048267;28;20198;-77
2021/07/31 11:05:06;;;;;;;1.52;0.98;;;;;23.50;100617.00;;;;5037951;28;20276;-76
2021/07/31 11:08:02;;;;;;;2.20;0.98;;;;;23.40;100623.00;;;;5047195;28;21117;-76
2021/07/31 11:10:43;;;;;;;5.00;1.08;;;;;23.50;100623.00;;;;5038640;28;20654;-77
2021/07/31 11:13:13;;;;;;;1.00;0.80;;;;;23.60;100624.00;;;;5049072;28;20278;-76
2021/07/31 11:16:22;;;;;;;1.10;0.82;;;;;23.60;100627.00;;;;5049536;28;20206;-76
2021/07/31 11:18:51;;;;;;;1.00;0.90;;;;;23.70;100627.00;;;;5012481;28;20233;-77
2021/07/31 11:21:20;;;;;;;1.85;1.00;;;;;23.70;100636.00;;;;5048690;28;20749;-77
2021/07/31 11:23:49;;;;;;;1.77;1.10;;;;;23.70;100635.00;;;;5048381;28;20210;-78
2021/07/31 11:26:37;;;;;;;2.00;1.20;;;;;23.60;100622.00;;;;5048824;28;20220;-76
2021/07/31 11:29:11;;;;;;;4.05;1.45;;;;;23.70;100639.00;;;;5028517;28;20255;-77
2021/07/31 11:31:39;;;;;;;2.03;1.45;;;;;23.80;100640.00;;;;5031814;28;20578;-76
2021/07/31 11:34:08;;;;;;;1.80;1.30;;;;;23.90;100640.00;;;;5048350;28;20219;-77
2021/07/31 11:36:38;;;;;;;1.63;1.52;;;;;23.90;100637.00;;;;5048070;28;20274;-76
2021/07/31 11:39:05;;;;;;;4.00;1.67;;;;;24.00;100650.00;;;;5048559;28;20721;-76
2021/07/31 11:41:40;;;;;;;2.15;1.90;;;;;24.00;100645.00;;;;5048005;28;20208;-77
2021/07/31 11:44:10;;;;;;;4.30;2.00;;;;;24.10;100650.00;;;;5047982;28;20282;-76
2021/07/31 11:46:39;;;;;;;2.65;2.17;;;;;24.10;100662.00;;;;5037356;28;20183;-76
2021/07/31 11:49:09;;;;;;;2.75;2.30;;;;;24.20;100650.00;;;;5048584;28;20232;-77
2021/07/31 11:51:44;;;;;;;2.72;2.25;;;;;24.20;100649.00;;;;5037479;28;20199;-77
2021/07/31 11:54:13;;;;;;;4.22;2.83;;;;;24.30;100648.00;;;;5048087;28;20195;-77
2021/07/31 11:56:41;;;;;;;2.25;1.60;;;;;24.40;100645.00;;;;5048146;28;20203;-76
2021/07/31 11:59:12;;;;;;;2.95;1.83;;;;;24.40;100641.00;;;;5048491;28;20596;-78
2021/07/31 12:01:46;;;;;;;3.72;2.33;;;;;24.40;100653.00;;;;5047309;28;21084;-76
2021/07/31 12:04:13;;;;;;;5.68;5.15;;;;;24.40;100646.00;;;;5037836;28;20195;-77
2021/07/31 12:06:43;;;;;;;6.20;5.43;;;;;24.40;100645.00;;;;5048454;28;20207;-77
2021/07/31 12:09:24;;;;;;;6.22;5.75;;;;;24.30;100648.00;;;;5043554;28;20231;-77
2021/07/31 12:11:53;;;;;;;9.55;8.65;;;;;24.40;100655.00;;;;5048317;28;20223;-77
2021/07/31 12:14:31;;;;;;;6.03;5.43;;;;;24.30;100660.00;;;;5034229;28;20204;-76
2021/07/31 12:17:25;;;;;;;5.07;4.63;;;;;24.30;100658.00;;;;5033173;28;20207;-77
2021/07/31 12:19:55;;;;;;;4.47;3.10;;;;;24.40;100659.00;;;;5000701;28;20200;-76